Terminal Aerodrome Forecast
Issued by NWS

Current Version | Previous Version | Text Only | Print | Product List | Glossary On
Versions: 1 2 3 4 5 6 7 8 9 10 11 12 13 14 15 16 17 18 19 20
000
FTUS46 KSTO 281300 AAA
TAFMHR
TAF AMD
KMHR 281354Z 2814/2912 34006KT 3SM BR BKN003 BKN150
      TEMPO 2814/2818 1/2SM FG OVC001
     FM282000 32005KT P6SM BKN200
     FM290300 VRB04KT 6SM HZ BKN200
     FM290800 VRB03KT 4SM BR BKN200=

USA.gov is the U.S. government's official web portal to all federal, state and local government web resources and services.